Flight Track Log - Related Links

Times and Time Zones

All times are in EDT time to prevent confusion due to time zone crossing. See the AAL672 flight status page for this flight to view local times or setup timezone preferences in your user account.

Time Position Orientation Groundspeed Altitude Reporting Facility
EDT Latitude Longitude Course Direction KTS MPH feet Rate Location/Type
Mon 08:55:19 PM 25.7981 -80.2767 79° East 151 174 700  Level Miami Center
Mon 08:55:56 PM 25.8031 -80.2469 79° East 161 185 2,000 1,753 Climbing Miami Center
Mon 08:56:48 PM 25.8103 -80.1964 81° East 228 262 3,300 2,250 Climbing Miami Center
Mon 08:57:48 PM 25.8758 -80.1658 23° Northeast 277 319 6,200 2,900 Climbing Miami Center
Mon 08:58:48 PM 25.9308 -80.2319 313° West 304 350 9,100 2,500 Climbing Miami Center
Mon 08:59:48 PM 25.9750 -80.3003 306° West 320 368 11,200 2,300 Climbing Miami Center
Mon 09:00:48 PM 26.0356 -80.3900 307° West 347 399 13,700 2,400 Climbing Miami Center
Mon 09:01:48 PM 26.0981 -80.4842 306° West 369 425 16,000 2,250 Climbing Miami Center
Mon 09:02:48 PM 26.1817 -80.5678 318° Northwest 384 442 18,200 2,050 Climbing Miami Center
Mon 09:03:48 PM 26.2717 -80.6400 324° Northwest 396 456 20,100 2,150 Climbing Miami Center
Mon 09:04:48 PM 26.3761 -80.7222 325° Northwest 416 479 22,500 2,150 Climbing Miami Center
Mon 09:05:48 PM 26.4597 -80.7900 324° Northwest 423 487 24,400 1,850 Climbing Miami Center
Mon 09:06:48 PM 26.5661 -80.8725 325° Northwest 423 487 26,200 1,700 Climbing Miami Center
Mon 09:07:48 PM 26.6561 -80.9431 325° Northwest 428 493 27,800 1,650 Climbing Miami Center
Mon 09:08:48 PM 26.7561 -81.0208 325° Northwest 441 507 29,500 1,682 Climbing Miami Center
Mon 09:10:00 PM 26.8683 -81.1108 324° Northwest 446 513 31,500 1,545 Climbing Miami Center
Mon 09:11:00 PM 26.9886 -81.2086 324° Northwest 446 513 32,900 1,500 Climbing Miami Center
Mon 09:12:00 PM 27.0825 -81.2844 324° Northwest 446 513 34,500 1,600 Climbing Miami Center
Mon 09:13:00 PM 27.1822 -81.3628 325° Northwest 446 513 36,100 1,550 Climbing Miami Center
Mon 09:14:00 PM 27.2922 -81.4514 324° Northwest 446 513 37,600 950 Climbing Miami Center
Mon 09:15:00 PM 27.3939 -81.5325 325° Northwest 446 513 38,000 200 Climbing Miami Center
Mon 09:16:00 PM 27.4936 -81.6114 325° Northwest 446 513 38,000  Level Miami Center
Mon 09:17:00 PM 27.5831 -81.6853 324° Northwest 446 513 38,000  Level Miami Center
Mon 09:18:00 PM 27.6825 -81.7669 324° Northwest 446 513 38,000  Level Miami Center
Mon 09:19:00 PM 27.7922 -81.8561 324° Northwest 446 513 38,000  Level Miami Center
Mon 09:20:42 PM 27.9672 -81.9619 332° Northwest 449 517 38,000  Level Jacksonville Center
Mon 09:21:42 PM 28.0881 -81.9681 357° North 427 491 38,000  Level Jacksonville Center
Mon 09:22:42 PM 28.2069 -81.9553 North 421 484 38,000  Level Jacksonville Center
Mon 09:23:42 PM 28.3300 -81.9444 North 426 490 38,000  Level Jacksonville Center
Mon 09:24:42 PM 28.4636 -81.9314 North 436 502 38,000  Level Jacksonville Center
Mon 09:25:42 PM 28.5867 -81.9208 North 436 502 38,000  Level Jacksonville Center
Mon 09:26:42 PM 28.6908 -81.9081 North 436 502 38,000  Level Jacksonville Center
Mon 09:27:42 PM 28.8161 -81.8997 North 436 502 38,000  Level Jacksonville Center
Mon 09:28:42 PM 28.9369 -81.8961 North 441 507 38,000  Level Jacksonville Center
Mon 09:29:42 PM 29.0606 -81.9447 341° North 424 488 38,000  Level Jacksonville Center
Mon 09:30:43 PM 29.1717 -82.0103 333° Northwest 438 504 38,000  Level Jacksonville Center
Mon 09:31:42 PM 29.2828 -82.0758 333° Northwest 438 504 38,000  Level Jacksonville Center
Mon 09:32:42 PM 29.3936 -82.1394 333° Northwest 444 511 38,000  Level Jacksonville Center
Mon 09:33:42 PM 29.4964 -82.2197 326° Northwest 449 517 38,000  Level Jacksonville Center
Mon 09:34:42 PM 29.5658 -82.3386 304° West 439 505 38,000  Level Jacksonville Center
Mon 09:35:42 PM 29.6292 -82.4672 300° West 452 520 38,000  Level Jacksonville Center
Mon 09:36:42 PM 29.6919 -82.5961 299° West 457 526 38,000  Level Jacksonville Center
Mon 09:37:42 PM 29.7569 -82.7275 300° West 472 543 38,000  Level Jacksonville Center
Mon 09:38:42 PM 29.8219 -82.8614 299° West 477 549 38,000  Level Jacksonville Center
Mon 09:39:42 PM 29.8864 -82.9883 300° West 466 536 38,000  Level Jacksonville Center
Mon 09:40:42 PM 29.9489 -83.1178 299° West 462 532 38,000  Level Jacksonville Center
Mon 09:41:42 PM 30.0133 -83.2475 300° West 462 532 38,000  Level Jacksonville Center
Mon 09:42:42 PM 30.0714 -83.3631 300° West 457 526 38,000  Level Jacksonville Center
Mon 09:43:42 PM 30.1314 -83.4906 299° West 457 526 38,000  Level Jacksonville Center
Mon 09:44:42 PM 30.1642 -83.6303 285° West 457 526 38,000  Level Jacksonville Center
Mon 09:45:42 PM 30.1883 -83.7722 281° West 457 526 38,000  Level Jacksonville Center
Mon 09:46:42 PM 30.2103 -83.9164 280° West 457 526 38,000  Level Jacksonville Center
Mon 09:47:42 PM 30.2342 -84.0586 281° West 457 526 38,000  Level Jacksonville Center
Mon 09:48:42 PM 30.2556 -84.2056 280° West 462 532 38,000  Level Jacksonville Center
Mon 09:49:42 PM 30.2792 -84.3478 281° West 462 532 38,000  Level Jacksonville Center
Mon 09:50:42 PM 30.3003 -84.4950 279° West 467 537 38,000  Level Jacksonville Center
Mon 09:51:42 PM 30.3256 -84.6397 281° West 467 537 38,000  Level Jacksonville Center
Mon 09:52:42 PM 30.3486 -84.7869 280° West 467 537 38,000  Level Jacksonville Center
Mon 09:53:42 PM 30.3733 -84.9294 281° West 467 537 38,000  Level Jacksonville Center
Mon 09:54:42 PM 30.4042 -85.0914 282° West 467 537 38,000  Level Jacksonville Center
Mon 09:55:42 PM 30.4286 -85.2367 281° West 467 537 38,000  Level Jacksonville Center
Mon 09:56:42 PM 30.4553 -85.3819 282° West 467 537 38,000  Level Jacksonville Center
Mon 09:57:42 PM 30.5067 -85.5158 294° West 459 528 38,000  Level Jacksonville Center
Mon 09:58:42 PM 30.5836 -85.6314 308° West 459 528 38,000  Level Jacksonville Center
Mon 09:59:42 PM 30.6644 -85.7494 309° West 465 535 38,000  Level Jacksonville Center
Mon 10:00:42 PM 30.7433 -85.8631 309° West 465 535 38,000  Level Jacksonville Center
Mon 10:01:42 PM 30.8200 -85.9792 308° West 459 528 38,000  Level Jacksonville Center
Mon 10:02:42 PM 30.8986 -86.0956 308° West 459 528 38,000  Level Jacksonville Center
Mon 10:03:42 PM 30.9769 -86.2097 309° West 459 528 38,000  Level Jacksonville Center
Mon 10:04:42 PM 31.0414 -86.3039 309° West 459 528 38,000  Level Jacksonville Center
Mon 10:05:42 PM 31.1192 -86.4331 305° West 452 520 38,000  Level Jacksonville Center
Mon 10:06:42 PM 31.2053 -86.5600 308° West 452 520 38,000  Level Jacksonville Center
Mon 10:07:42 PM 31.2792 -86.6772 306° West 452 520 38,000  Level Jacksonville Center
Mon 10:09:00 PM 31.3836 -86.8214 310° West 452 520 38,000  Level Atlanta Center
Mon 10:10:00 PM 31.4500 -86.9281 306° West 452 520 38,000  Level Atlanta Center
Mon 10:11:00 PM 31.5367 -87.0528 309° West 452 520 38,000  Level Atlanta Center
Mon 10:12:00 PM 31.6111 -87.1697 307° West 447 514 38,000  Level Atlanta Center
Mon 10:13:00 PM 31.6711 -87.2622 307° West 447 514 38,000  Level Atlanta Center
Mon 10:14:00 PM 31.7633 -87.4022 308° West 447 514 38,000  Level Atlanta Center
Mon 10:15:00 PM 31.8394 -87.5200 307° West 447 514 38,000  Level Atlanta Center
Mon 10:16:00 PM 31.9156 -87.6378 307° West 452 520 38,000  Level Atlanta Center
Mon 10:17:00 PM 31.9914 -87.7536 308° West 452 520 38,000  Level Atlanta Center
Mon 10:18:00 PM 32.0650 -87.8719 306° West 452 520 38,000  Level Atlanta Center
Mon 10:20:12 PM 32.2217 -88.1131 308° West 453 521 38,000  Level Memphis Center
Mon 10:21:12 PM 32.2925 -88.2292 306° West 447 514 38,000  Level Memphis Center
Mon 10:22:12 PM 32.3633 -88.3431 306° West 442 509 38,000  Level Memphis Center
Mon 10:23:12 PM 32.4319 -88.4547 306° West 437 503 38,000  Level Memphis Center
Mon 10:24:12 PM 32.5086 -88.5714 308° West 425 489 38,000  Level Memphis Center
Mon 10:25:12 PM 32.5792 -88.6858 306° West 425 489 38,000  Level Memphis Center
Mon 10:26:12 PM 32.6475 -88.7931 307° West 425 489 38,000  Level Memphis Center
Mon 10:27:12 PM 32.7178 -88.9078 306° West 425 489 38,000  Level Memphis Center
Mon 10:28:12 PM 32.7878 -89.0203 307° West 425 489 38,000  Level Memphis Center
Mon 10:29:12 PM 32.8600 -89.1356 307° West 425 489 38,000  Level Memphis Center
Mon 10:30:12 PM 32.9300 -89.2483 307° West 425 489 38,000  Level Memphis Center
Mon 10:31:12 PM 33.0019 -89.3639 307° West 430 495 38,000  Level Memphis Center
Mon 10:32:12 PM 33.0675 -89.4647 308° West 430 495 38,000  Level Memphis Center
Mon 10:33:12 PM 33.1392 -89.5831 306° West 430 495 38,000  Level Memphis Center
Mon 10:34:12 PM 33.2108 -89.6992 306° West 430 495 38,000  Level Memphis Center
Mon 10:35:12 PM 33.2803 -89.8156 306° West 430 495 38,000  Level Memphis Center
Mon 10:36:12 PM 33.3517 -89.9319 306° West 430 495 38,000  Level Memphis Center
Mon 10:37:12 PM 33.4208 -90.0486 305° West 430 495 38,000  Level Memphis Center
Mon 10:38:12 PM 33.4900 -90.1656 305° West 430 495 38,000  Level Memphis Center
Mon 10:39:12 PM 33.5592 -90.2997 302° West 436 502 38,000  Level Memphis Center
Mon 10:40:12 PM 33.6239 -90.4222 302° West 436 502 38,000  Level Memphis Center
Mon 10:41:12 PM 33.6906 -90.5469 303° West 436 502 38,000  Level Memphis Center
Mon 10:42:12 PM 33.7508 -90.6669 301° West 436 502 38,000  Level Memphis Center
Mon 10:43:12 PM 33.8150 -90.7922 302° West 436 502 38,000  Level Memphis Center
Mon 10:44:12 PM 33.8711 -90.9050 301° West 436 502 38,000  Level Memphis Center
Mon 10:45:12 PM 33.9350 -91.0281 302° West 434 499 38,000  Level Memphis Center
Mon 10:46:12 PM 33.9969 -91.1514 301° West 434 499 38,000  Level Memphis Center
Mon 10:47:12 PM 34.0608 -91.2747 302° West 434 499 38,000  Level Memphis Center
Mon 10:48:12 PM 34.1308 -91.4136 301° West 434 499 38,000  Level Memphis Center
Mon 10:49:12 PM 34.1942 -91.5400 301° West 434 499 38,000  Level Memphis Center
Mon 10:50:12 PM 34.2578 -91.6639 302° West 434 499 38,000  Level Memphis Center
Mon 10:51:12 PM 34.3169 -91.7831 301° West 426 490 38,000  Level Memphis Center
Mon 10:52:12 PM 34.3781 -91.9072 301° West 426 490 38,000  Level Memphis Center
Mon 10:53:12 PM 34.4392 -92.0319 301° West 431 496 38,000  Level Memphis Center
Mon 10:54:12 PM 34.5019 -92.1567 301° West 431 496 38,000  Level Memphis Center
Mon 10:55:12 PM 34.5628 -92.2839 300° West 431 496 38,000  Level Memphis Center
Mon 10:56:12 PM 34.6233 -92.4089 301° West 431 496 38,000  Level Memphis Center
Mon 10:57:12 PM 34.6817 -92.5317 300° West 431 496 38,000  Level Memphis Center
Mon 10:58:12 PM 34.7442 -92.6569 301° West 431 496 38,000  Level Memphis Center
Mon 10:59:12 PM 34.8025 -92.7800 300° West 426 490 38,000  Level Memphis Center
Mon 11:00:12 PM 34.8625 -92.9006 301° West 426 490 38,000  Level Memphis Center
Mon 11:01:12 PM 34.9225 -93.0267 300° West 426 490 38,000  Level Memphis Center
Mon 11:02:12 PM 34.9683 -93.1269 299° West 426 490 38,000  Level Memphis Center
Mon 11:03:12 PM 35.0342 -93.2633 301° West 426 490 38,000  Level Memphis Center
Mon 11:04:12 PM 35.0936 -93.3872 300° West 426 490 38,000  Level Memphis Center
Mon 11:05:12 PM 35.1511 -93.5139 299° West 426 490 38,000  Level Memphis Center
Mon 11:06:12 PM 35.2106 -93.6381 300° West 426 490 38,000  Level Memphis Center
Mon 11:07:12 PM 35.2678 -93.7572 300° West 426 490 38,000  Level Memphis Center
Mon 11:08:12 PM 35.3289 -93.8844 301° West 420 483 38,000  Level Memphis Center
Mon 11:09:12 PM 35.3881 -94.0067 301° West 425 489 38,000  Level Memphis Center
Mon 11:10:12 PM 35.4447 -94.1339 299° West 425 489 38,000  Level Memphis Center
Mon 11:11:12 PM 35.5014 -94.2564 300° West 425 489 38,000  Level Memphis Center
Mon 11:12:12 PM 35.5656 -94.3972 299° West 425 489 38,000  Level Memphis Center
Mon 11:13:12 PM 35.6219 -94.5225 299° West 425 489 38,000  Level Memphis Center
Mon 11:14:12 PM 35.6825 -94.6483 301° West 425 489 38,000  Level Memphis Center
Mon 11:15:12 PM 35.7406 -94.7739 300° West 425 489 38,000  Level Memphis Center
Mon 11:16:06 PM 35.7878 -94.8778 299° West 422 486 38,000  Level Kansas City Center
Mon 11:17:06 PM 35.8453 -95.0036 299° West 420 483 38,000  Level Kansas City Center
Mon 11:18:06 PM 35.9028 -95.1278 300° West 417 480 38,000  Level Kansas City Center
Mon 11:19:07 PM 35.9592 -95.2519 299° West 414 476 38,000  Level Kansas City Center
Mon 11:20:08 PM 36.0158 -95.3792 299° West 418 481 38,000  Level Kansas City Center
Mon 11:21:10 PM 36.0733 -95.5075 299° West 421 484 38,000  Level Kansas City Center
Mon 11:22:11 PM 36.1236 -95.6203 299° West 422 486 38,000  Level Kansas City Center
Mon 11:23:11 PM 36.1886 -95.7667 299° West 426 490 38,000  Level Kansas City Center
Mon 11:24:12 PM 36.2400 -95.9022 295° West 430 495 38,000  Level Kansas City Center
Mon 11:25:11 PM 36.2900 -96.0381 295° West 430 495 38,000  Level Kansas City Center
Mon 11:26:12 PM 36.3408 -96.1739 295° West 432 497 38,000  Level Kansas City Center
Mon 11:27:14 PM 36.3914 -96.3108 295° West 433 498 38,000 49 Level Kansas City Center
Mon 11:28:15 PM 36.4414 -96.4481 294° West 435 501 38,100 488 Climbing Kansas City Center
Mon 11:29:17 PM 36.4903 -96.5836 294° West 433 498 39,000 950 Climbing Kansas City Center
Mon 11:30:15 PM 36.5408 -96.7200 295° West 432 497 40,000 492 Climbing Kansas City Center
Mon 11:31:19 PM 36.5933 -96.8525 296° West 429 494 40,000  Level Kansas City Center
Mon 11:32:17 PM 36.6411 -96.9844 294° West 421 484 40,000  Level Kansas City Center
Mon 11:33:21 PM 36.6889 -97.1119 295° West 417 480 40,000  Level Kansas City Center
Mon 11:34:19 PM 36.7469 -97.2728 294° West 423 487 40,000  Level Kansas City Center
Mon 11:35:23 PM 36.7953 -97.4075 294° West 426 490 40,000  Level Kansas City Center
Mon 11:36:23 PM 36.8425 -97.5400 294° West 428 493 40,000  Level Kansas City Center
Mon 11:37:23 PM 36.8911 -97.6786 294° West 431 496 40,000  Level Kansas City Center
Mon 11:38:23 PM 36.9397 -97.8164 294° West 432 497 40,000  Level Kansas City Center
Mon 11:39:27 PM 36.9886 -97.9547 294° West 433 498 40,000  Level Kansas City Center
Mon 11:40:27 PM 37.0375 -98.0931 294° West 434 499 40,000  Level Kansas City Center
Mon 11:41:28 PM 37.0853 -98.2311 293° West 433 498 40,000  Level Kansas City Center
Mon 11:42:29 PM 37.1333 -98.3697 294° West 432 497 40,000  Level Kansas City Center
Mon 11:43:30 PM 37.1811 -98.5075 294° West 430 495 40,000  Level Kansas City Center
Mon 11:44:28 PM 37.2289 -98.6461 293° West 430 495 40,000  Level Kansas City Center
Mon 11:45:32 PM 37.2747 -98.7819 293° West 426 490 40,000  Level Kansas City Center
Mon 11:46:32 PM 37.3211 -98.9186 293° West 425 489 40,000  Level Kansas City Center
Mon 11:47:31 PM 37.3672 -99.0539 293° West 423 487 40,000  Level Kansas City Center
Mon 11:48:33 PM 37.4125 -99.1883 293° West 419 482 40,000  Level Kansas City Center
Mon 11:49:35 PM 37.4583 -99.3225 293° West 417 480 40,000  Level Kansas City Center
Mon 11:50:36 PM 37.5175 -99.4822 295° West 418 481 40,000  Level Kansas City Center
Mon 11:51:34 PM 37.5631 -99.6092 294° West 417 480 40,000  Level Kansas City Center
Mon 11:52:37 PM 37.6083 -99.7383 294° West 420 483 40,000  Level Kansas City Center
Mon 11:53:37 PM 37.6619 -99.8875 294° West 419 482 40,000  Level Kansas City Center
Mon 11:54:39 PM 37.7081 -100.0156 295° West 420 483 40,000  Level Kansas City Center
Mon 11:55:37 PM 37.7528 -100.1453 294° West 421 484 40,000  Level Kansas City Center
Mon 11:56:38 PM 37.8050 -100.2953 294° West 420 483 40,000  Level Kansas City Center
Mon 11:57:39 PM 37.8500 -100.4258 294° West 424 488 40,000  Level Kansas City Center
Mon 11:58:41 PM 37.8947 -100.5550 294° West 423 487 40,000  Level Kansas City Center
Mon 11:59:40 PM 37.9475 -100.7058 294° West 423 487 40,000  Level Kansas City Center
Tue 12:00:43 AM 37.9919 -100.8358 293° West 424 488 40,000  Level Kansas City Center
Tue 12:01:41 AM 38.0414 -100.9883 292° West 423 487 40,000  Level Kansas City Center
Tue 12:02:42 AM 38.0869 -101.1217 294° West 430 495 40,000  Level Kansas City Center
Tue 12:03:46 AM 38.1308 -101.2544 293° West 430 495 40,000  Level Kansas City Center
Tue 12:04:20 AM 38.1658 -101.3386 298° West 429 494 40,000  Level Denver Center
Tue 12:05:21 AM 38.2353 -101.4803 302° West 423 487 40,000  Level Denver Center
Tue 12:06:22 AM 38.2953 -101.6025 302° West 425 489 40,000  Level Denver Center
Tue 12:07:23 AM 38.3547 -101.7242 302° West 423 487 40,000  Level Denver Center
Tue 12:08:25 AM 38.4233 -101.8667 302° West 423 487 40,000 -98 Level Denver Center
Tue 12:09:26 AM 38.4828 -101.9869 302° West 420 483 39,800 -590 Descending Denver Center
Tue 12:10:27 AM 38.5411 -102.1067 302° West 416 479 38,800 -1,082 Descending Denver Center
Tue 12:11:28 AM 38.6081 -102.2464 302° West 413 475 37,600 -1,082 Descending Denver Center
Tue 12:12:29 AM 38.6658 -102.3686 301° West 419 482 36,600 -1,033 Descending Denver Center
Tue 12:13:30 AM 38.7342 -102.5100 302° West 421 484 35,500 -1,082 Descending Denver Center
Tue 12:14:31 AM 38.7928 -102.6331 301° West 424 488 34,400 -1,082 Descending Denver Center
Tue 12:15:32 AM 38.8500 -102.7544 301° West 428 493 33,300 -689 Descending Denver Center
Tue 12:16:33 AM 38.9139 -102.8872 302° West 437 503 33,000 -533 Descending Denver Center
Tue 12:17:47 AM 39.0006 -103.0736 301° West 434 499 32,100 -844 Descending Denver Center
Tue 12:18:48 AM 39.0614 -103.2081 300° West 436 502 31,100 -1,180 Descending Denver Center
Tue 12:19:49 AM 39.1244 -103.3386 302° West 432 497 29,700 -1,623 Descending Denver Center
Tue 12:20:50 AM 39.1831 -103.4683 300° West 423 487 27,800 -1,918 Descending Denver Center
Tue 12:21:51 AM 39.2408 -103.5925 301° West 407 468 25,800 -1,967 Descending Denver Center
Tue 12:22:52 AM 39.2969 -103.7150 301° West 400 460 23,800 -1,918 Descending Denver Center
Tue 12:23:53 AM 39.3517 -103.8358 300° West 391 450 21,900 -1,328 Descending Denver Center
Tue 12:24:54 AM 39.4075 -103.9550 301° West 369 425 21,100 -1,230 Descending Denver Center
Tue 12:25:55 AM 39.4664 -104.0486 309° West 333 383 19,400 -1,623 Descending Denver Center
Tue 12:26:56 AM 39.5269 -104.1531 307° West 336 387 17,800 -1,377 Descending Denver Center
Tue 12:27:57 AM 39.5833 -104.2431 309° West 323 372 16,600 -1,033 Descending Denver Center
Tue 12:28:58 AM 39.6344 -104.3311 307° West 311 358 15,700 -787 Descending Denver Center
Tue 12:29:59 AM 39.6875 -104.4206 308° West 312 359 15,000 -1,082 Descending Denver Center
Tue 12:31:00 AM 39.7411 -104.5069 309° West 310 357 13,500 -1,525 Descending Denver Center
Tue 12:32:01 AM 39.8297 -104.5214 353° North 304 350 11,900 -1,131 Descending Denver Center
Tue 12:33:02 AM 39.9122 -104.5208 360° North 295 339 11,200 -545 Descending Denver Center
Tue 12:34:02 AM 39.9853 -104.5192 North 264 304 10,800 -595 Descending Denver Center
Tue 12:35:03 AM 40.0544 -104.5181 North 245 282 10,000 -885 Descending Denver Center
Tue 12:36:04 AM 40.0972 -104.5667 319° Northwest 214 246 9,000 -984 Descending Denver Center
Tue 12:37:05 AM 40.0778 -104.6253 247° West 192 221 8,000 -492 Descending Denver Center
Tue 12:38:06 AM 40.0353 -104.6575 210° Southwest 178 205 8,000 -393 Level Denver Center
Tue 12:39:07 AM 39.9919 -104.6833 205° Southwest 173 199 7,200 -787 Descending Denver Center
Tue 12:40:08 AM 39.9506 -104.6858 183° South 147 169 6,400 -689 Descending Denver Center
Tue 12:41:09 AM 39.9150 -104.6867 181° South 130 150 5,800 -496 Descending Denver Center
Tue 12:42:09 AM 39.8786 -104.6872 181° South 126 145 5,400 -400 Descending Denver Center

Login

Don't have an account? Register now (free) for customized features, flight alerts, and more!